sensor_id;sensor_type;location;lat;lon;timestamp;P1;durP1;ratioP1;P2;durP2;ratioP2
43817;SDS011;29868;47.360;18.984;2022-11-03T00:01:48;14.02;;;7.95;;
43817;SDS011;29868;47.360;18.984;2022-11-03T00:04:20;14.25;;;8.10;;
43817;SDS011;29868;47.360;18.984;2022-11-03T00:06:48;13.75;;;7.85;;
43817;SDS011;29868;47.360;18.984;2022-11-03T00:09:18;11.98;;;7.32;;
43817;SDS011;29868;47.360;18.984;2022-11-03T00:11:46;13.52;;;7.28;;
43817;SDS011;29868;47.360;18.984;2022-11-03T00:14:12;13.05;;;7.13;;
43817;SDS011;29868;47.360;18.984;2022-11-03T00:16:41;12.32;;;7.55;;
43817;SDS011;29868;47.360;18.984;2022-11-03T00:19:07;12.30;;;7.07;;
43817;SDS011;29868;47.360;18.984;2022-11-03T00:21:34;15.50;;;8.45;;
43817;SDS011;29868;47.360;18.984;2022-11-03T00:23:59;14.55;;;8.73;;
43817;SDS011;29868;47.360;18.984;2022-11-03T00:26:28;12.88;;;8.07;;
43817;SDS011;29868;47.360;18.984;2022-11-03T00:28:59;12.77;;;7.68;;
43817;SDS011;29868;47.360;18.984;2022-11-03T00:31:26;12.63;;;7.55;;
43817;SDS011;29868;47.360;18.984;2022-11-03T00:33:56;13.57;;;7.82;;
43817;SDS011;29868;47.360;18.984;2022-11-03T00:36:26;16.50;;;8.18;;
43817;SDS011;29868;47.360;18.984;2022-11-03T00:38:53;13.18;;;7.90;;
43817;SDS011;29868;47.360;18.984;2022-11-03T00:41:19;14.55;;;8.93;;
43817;SDS011;29868;47.360;18.984;2022-11-03T00:43:46;14.75;;;8.98;;
43817;SDS011;29868;47.360;18.984;2022-11-03T00:46:12;18.52;;;9.80;;
43817;SDS011;29868;47.360;18.984;2022-11-03T00:48:38;18.90;;;9.45;;
43817;SDS011;29868;47.360;18.984;2022-11-03T00:51:11;15.43;;;9.48;;
43817;SDS011;29868;47.360;18.984;2022-11-03T00:53:46;16.27;;;9.30;;
43817;SDS011;29868;47.360;18.984;2022-11-03T00:56:15;13.32;;;8.35;;
43817;SDS011;29868;47.360;18.984;2022-11-03T00:58:44;14.75;;;8.38;;
43817;SDS011;29868;47.360;18.984;2022-11-03T01:03:37;15.35;;;7.93;;
43817;SDS011;29868;47.360;18.984;2022-11-03T01:06:05;14.32;;;8.27;;
43817;SDS011;29868;47.360;18.984;2022-11-03T01:08:51;11.35;;;7.18;;
43817;SDS011;29868;47.360;18.984;2022-11-03T01:11:18;11.30;;;6.68;;
43817;SDS011;29868;47.360;18.984;2022-11-03T01:14:07;11.43;;;5.90;;
43817;SDS011;29868;47.360;18.984;2022-11-03T01:16:33;10.77;;;6.43;;
43817;SDS011;29868;47.360;18.984;2022-11-03T01:18:59;12.18;;;6.60;;
43817;SDS011;29868;47.360;18.984;2022-11-03T01:21:24;10.80;;;6.45;;
43817;SDS011;29868;47.360;18.984;2022-11-03T01:23:50;12.02;;;6.32;;
43817;SDS011;29868;47.360;18.984;2022-11-03T01:26:15;11.38;;;6.15;;
43817;SDS011;29868;47.360;18.984;2022-11-03T01:28:42;10.93;;;5.80;;
43817;SDS011;29868;47.360;18.984;2022-11-03T01:31:10;10.35;;;5.47;;
43817;SDS011;29868;47.360;18.984;2022-11-03T01:33:38;10.10;;;5.47;;
43817;SDS011;29868;47.360;18.984;2022-11-03T01:36:04;10.88;;;5.53;;
43817;SDS011;29868;47.360;18.984;2022-11-03T01:38:30;11.75;;;5.75;;
43817;SDS011;29868;47.360;18.984;2022-11-03T01:40:57;9.95;;;5.35;;
43817;SDS011;29868;47.360;18.984;2022-11-03T01:43:23;12.02;;;5.10;;
43817;SDS011;29868;47.360;18.984;2022-11-03T01:45:54;9.25;;;5.05;;
43817;SDS011;29868;47.360;18.984;2022-11-03T01:48:25;9.82;;;5.32;;
43817;SDS011;29868;47.360;18.984;2022-11-03T01:50:51;11.63;;;5.38;;
43817;SDS011;29868;47.360;18.984;2022-11-03T01:53:17;12.05;;;5.25;;
43817;SDS011;29868;47.360;18.984;2022-11-03T01:55:43;10.10;;;5.10;;
43817;SDS011;29868;47.360;18.984;2022-11-03T02:00:52;10.73;;;5.45;;
43817;SDS011;29868;47.360;18.984;2022-11-03T02:03:20;11.60;;;4.78;;
43817;SDS011;29868;47.360;18.984;2022-11-03T02:05:47;9.50;;;5.32;;
43817;SDS011;29868;47.360;18.984;2022-11-03T02:10:42;12.05;;;5.45;;
43817;SDS011;29868;47.360;18.984;2022-11-03T02:13:15;10.05;;;5.43;;
43817;SDS011;29868;47.360;18.984;2022-11-03T02:15:43;9.00;;;5.38;;
43817;SDS011;29868;47.360;18.984;2022-11-03T02:18:11;10.05;;;6.00;;
43817;SDS011;29868;47.360;18.984;2022-11-03T02:20:38;10.73;;;6.15;;
43817;SDS011;29868;47.360;18.984;2022-11-03T02:25:44;10.13;;;6.22;;
43817;SDS011;29868;47.360;18.984;2022-11-03T02:28:12;11.40;;;6.00;;
43817;SDS011;29868;47.360;18.984;2022-11-03T02:30:49;10.05;;;5.95;;
43817;SDS011;29868;47.360;18.984;2022-11-03T02:38:17;12.52;;;6.47;;
43817;SDS011;29868;47.360;18.984;2022-11-03T02:40:49;12.88;;;7.25;;
43817;SDS011;29868;47.360;18.984;2022-11-03T02:43:18;12.68;;;6.93;;
43817;SDS011;29868;47.360;18.984;2022-11-03T02:45:46;11.98;;;7.15;;
43817;SDS011;29868;47.360;18.984;2022-11-03T02:48:14;12.27;;;6.78;;
43817;SDS011;29868;47.360;18.984;2022-11-03T02:50:41;12.52;;;7.38;;
43817;SDS011;29868;47.360;18.984;2022-11-03T02:53:10;12.88;;;7.50;;
43817;SDS011;29868;47.360;18.984;2022-11-03T03:00:48;13.18;;;7.35;;
43817;SDS011;29868;47.360;18.984;2022-11-03T03:03:21;16.85;;;8.52;;
43817;SDS011;29868;47.360;18.984;2022-11-03T03:06:05;12.55;;;8.02;;
43817;SDS011;29868;47.360;18.984;2022-11-03T03:08:43;16.38;;;7.72;;
43817;SDS011;29868;47.360;18.984;2022-11-03T03:11:11;14.00;;;8.02;;
43817;SDS011;29868;47.360;18.984;2022-11-03T03:13:38;16.27;;;8.25;;
43817;SDS011;29868;47.360;18.984;2022-11-03T03:16:16;15.88;;;8.23;;
43817;SDS011;29868;47.360;18.984;2022-11-03T03:18:50;14.85;;;8.32;;
43817;SDS011;29868;47.360;18.984;2022-11-03T03:21:27;14.67;;;8.20;;
43817;SDS011;29868;47.360;18.984;2022-11-03T03:23:58;16.65;;;8.48;;
43817;SDS011;29868;47.360;18.984;2022-11-03T03:26:28;16.75;;;9.00;;
43817;SDS011;29868;47.360;18.984;2022-11-03T03:29:00;16.60;;;9.13;;
43817;SDS011;29868;47.360;18.984;2022-11-03T03:31:30;15.77;;;9.05;;
43817;SDS011;29868;47.360;18.984;2022-11-03T03:33:59;15.88;;;8.98;;
43817;SDS011;29868;47.360;18.984;2022-11-03T03:36:25;20.15;;;9.75;;
43817;SDS011;29868;47.360;18.984;2022-11-03T03:38:57;19.42;;;10.07;;
43817;SDS011;29868;47.360;18.984;2022-11-03T03:41:27;20.65;;;10.77;;
43817;SDS011;29868;47.360;18.984;2022-11-03T03:43:57;19.40;;;10.85;;
43817;SDS011;29868;47.360;18.984;2022-11-03T03:46:27;17.45;;;10.43;;
43817;SDS011;29868;47.360;18.984;2022-11-03T03:48:56;20.42;;;10.73;;
43817;SDS011;29868;47.360;18.984;2022-11-03T03:51:22;20.85;;;10.85;;
43817;SDS011;29868;47.360;18.984;2022-11-03T03:53:50;20.45;;;10.77;;
43817;SDS011;29868;47.360;18.984;2022-11-03T03:56:22;23.00;;;12.32;;
43817;SDS011;29868;47.360;18.984;2022-11-03T03:58:53;23.77;;;11.45;;
43817;SDS011;29868;47.360;18.984;2022-11-03T04:01:18;22.70;;;12.00;;
43817;SDS011;29868;47.360;18.984;2022-11-03T04:03:44;24.20;;;11.95;;
43817;SDS011;29868;47.360;18.984;2022-11-03T04:06:09;24.95;;;12.32;;
43817;SDS011;29868;47.360;18.984;2022-11-03T04:08:34;25.48;;;13.00;;
43817;SDS011;29868;47.360;18.984;2022-11-03T04:11:00;21.50;;;11.50;;
43817;SDS011;29868;47.360;18.984;2022-11-03T04:13:44;22.50;;;11.88;;
43817;SDS011;29868;47.360;18.984;2022-11-03T04:16:28;23.27;;;11.15;;
43817;SDS011;29868;47.360;18.984;2022-11-03T04:19:12;22.60;;;11.00;;
43817;SDS011;29868;47.360;18.984;2022-11-03T04:21:55;19.52;;;10.85;;
43817;SDS011;29868;47.360;18.984;2022-11-03T04:24:39;20.52;;;11.00;;
43817;SDS011;29868;47.360;18.984;2022-11-03T04:29:43;20.33;;;10.60;;
43817;SDS011;29868;47.360;18.984;2022-11-03T04:32:17;22.65;;;11.02;;
43817;SDS011;29868;47.360;18.984;2022-11-03T04:34:46;22.55;;;10.93;;
43817;SDS011;29868;47.360;18.984;2022-11-03T04:37:12;19.90;;;10.95;;
43817;SDS011;29868;47.360;18.984;2022-11-03T04:39:39;19.50;;;10.43;;
43817;SDS011;29868;47.360;18.984;2022-11-03T04:42:11;19.95;;;11.05;;
43817;SDS011;29868;47.360;18.984;2022-11-03T04:44:41;21.52;;;11.77;;
43817;SDS011;29868;47.360;18.984;2022-11-03T04:47:10;19.13;;;10.40;;
43817;SDS011;29868;47.360;18.984;2022-11-03T04:49:36;21.50;;;11.43;;
43817;SDS011;29868;47.360;18.984;2022-11-03T04:52:02;22.88;;;11.45;;
43817;SDS011;29868;47.360;18.984;2022-11-03T04:54:43;23.50;;;11.45;;
43817;SDS011;29868;47.360;18.984;2022-11-03T04:57:11;21.23;;;11.60;;
43817;SDS011;29868;47.360;18.984;2022-11-03T04:59:39;22.58;;;12.15;;
43817;SDS011;29868;47.360;18.984;2022-11-03T05:02:13;21.63;;;12.23;;
43817;SDS011;29868;47.360;18.984;2022-11-03T05:04:41;24.67;;;12.05;;
43817;SDS011;29868;47.360;18.984;2022-11-03T05:07:50;20.45;;;11.98;;
43817;SDS011;29868;47.360;18.984;2022-11-03T05:10:00;22.63;;;11.80;;
43817;SDS011;29868;47.360;18.984;2022-11-03T05:12:26;24.95;;;12.93;;
43817;SDS011;29868;47.360;18.984;2022-11-03T05:14:54;24.95;;;13.27;;
43817;SDS011;29868;47.360;18.984;2022-11-03T05:17:23;28.67;;;14.00;;
43817;SDS011;29868;47.360;18.984;2022-11-03T05:19:50;29.67;;;14.38;;
43817;SDS011;29868;47.360;18.984;2022-11-03T05:22:32;23.08;;;12.68;;
43817;SDS011;29868;47.360;18.984;2022-11-03T05:25:01;26.38;;;14.07;;
43817;SDS011;29868;47.360;18.984;2022-11-03T05:27:44;26.67;;;14.30;;
43817;SDS011;29868;47.360;18.984;2022-11-03T05:30:11;32.15;;;15.77;;
43817;SDS011;29868;47.360;18.984;2022-11-03T05:32:37;27.02;;;14.20;;
43817;SDS011;29868;47.360;18.984;2022-11-03T05:35:07;32.40;;;15.60;;
43817;SDS011;29868;47.360;18.984;2022-11-03T05:37:43;28.67;;;15.10;;
43817;SDS011;29868;47.360;18.984;2022-11-03T05:42:55;35.25;;;18.48;;
43817;SDS011;29868;47.360;18.984;2022-11-03T05:45:25;34.95;;;16.95;;
43817;SDS011;29868;47.360;18.984;2022-11-03T05:47:56;34.05;;;17.33;;
43817;SDS011;29868;47.360;18.984;2022-11-03T05:50:26;32.45;;;15.70;;
43817;SDS011;29868;47.360;18.984;2022-11-03T05:52:57;35.00;;;14.60;;
43817;SDS011;29868;47.360;18.984;2022-11-03T05:55:42;29.88;;;14.88;;
43817;SDS011;29868;47.360;18.984;2022-11-03T05:58:18;29.77;;;14.63;;
43817;SDS011;29868;47.360;18.984;2022-11-03T06:00:48;29.55;;;14.77;;
43817;SDS011;29868;47.360;18.984;2022-11-03T06:03:15;28.13;;;14.70;;
43817;SDS011;29868;47.360;18.984;2022-11-03T06:05:45;29.00;;;13.60;;
43817;SDS011;29868;47.360;18.984;2022-11-03T06:08:14;26.83;;;13.32;;
43817;SDS011;29868;47.360;18.984;2022-11-03T06:10:53;26.58;;;11.95;;
43817;SDS011;29868;47.360;18.984;2022-11-03T06:13:25;26.75;;;12.40;;
43817;SDS011;29868;47.360;18.984;2022-11-03T06:15:56;28.70;;;14.37;;
43817;SDS011;29868;47.360;18.984;2022-11-03T06:18:24;29.20;;;14.00;;
43817;SDS011;29868;47.360;18.984;2022-11-03T06:20:55;27.63;;;14.45;;
43817;SDS011;29868;47.360;18.984;2022-11-03T06:23:27;24.23;;;12.38;;
43817;SDS011;29868;47.360;18.984;2022-11-03T06:25:53;21.48;;;11.40;;
43817;SDS011;29868;47.360;18.984;2022-11-03T06:28:22;25.25;;;12.10;;
43817;SDS011;29868;47.360;18.984;2022-11-03T06:30:52;24.15;;;11.48;;
43817;SDS011;29868;47.360;18.984;2022-11-03T06:33:18;22.40;;;11.90;;
43817;SDS011;29868;47.360;18.984;2022-11-03T06:35:48;22.13;;;11.80;;
43817;SDS011;29868;47.360;18.984;2022-11-03T06:38:20;26.25;;;13.60;;
43817;SDS011;29868;47.360;18.984;2022-11-03T06:40:51;24.80;;;13.20;;
43817;SDS011;29868;47.360;18.984;2022-11-03T06:43:21;23.77;;;13.00;;
43817;SDS011;29868;47.360;18.984;2022-11-03T06:48:23;22.55;;;11.57;;
43817;SDS011;29868;47.360;18.984;2022-11-03T06:50:50;22.63;;;12.07;;
43817;SDS011;29868;47.360;18.984;2022-11-03T06:53:21;19.75;;;11.73;;
43817;SDS011;29868;47.360;18.984;2022-11-03T06:55:49;25.08;;;11.93;;
43817;SDS011;29868;47.360;18.984;2022-11-03T06:58:26;20.90;;;11.07;;
43817;SDS011;29868;47.360;18.984;2022-11-03T07:00:55;18.92;;;10.85;;
43817;SDS011;29868;47.360;18.984;2022-11-03T07:06:21;18.60;;;10.02;;
43817;SDS011;29868;47.360;18.984;2022-11-03T07:08:52;17.45;;;9.52;;
43817;SDS011;29868;47.360;18.984;2022-11-03T07:11:20;18.02;;;9.48;;
43817;SDS011;29868;47.360;18.984;2022-11-03T07:14:09;19.70;;;9.85;;
43817;SDS011;29868;47.360;18.984;2022-11-03T07:24:23;15.80;;;8.75;;
43817;SDS011;29868;47.360;18.984;2022-11-03T07:29:44;16.45;;;8.25;;
43817;SDS011;29868;47.360;18.984;2022-11-03T07:32:13;13.88;;;8.63;;
43817;SDS011;29868;47.360;18.984;2022-11-03T07:34:41;14.45;;;8.73;;
43817;SDS011;29868;47.360;18.984;2022-11-03T07:37:08;16.23;;;9.00;;
43817;SDS011;29868;47.360;18.984;2022-11-03T07:39:40;15.98;;;8.90;;
43817;SDS011;29868;47.360;18.984;2022-11-03T07:42:16;16.92;;;9.43;;
43817;SDS011;29868;47.360;18.984;2022-11-03T07:44:44;18.25;;;10.13;;
43817;SDS011;29868;47.360;18.984;2022-11-03T07:47:14;23.02;;;11.05;;
43817;SDS011;29868;47.360;18.984;2022-11-03T07:49:43;22.17;;;10.80;;
43817;SDS011;29868;47.360;18.984;2022-11-03T07:52:10;23.30;;;11.25;;
43817;SDS011;29868;47.360;18.984;2022-11-03T07:54:37;25.08;;;11.20;;
43817;SDS011;29868;47.360;18.984;2022-11-03T07:57:10;22.13;;;11.77;;
43817;SDS011;29868;47.360;18.984;2022-11-03T07:59:42;25.92;;;12.30;;
43817;SDS011;29868;47.360;18.984;2022-11-03T08:02:22;25.70;;;12.27;;
43817;SDS011;29868;47.360;18.984;2022-11-03T08:04:57;29.15;;;13.57;;
43817;SDS011;29868;47.360;18.984;2022-11-03T08:07:23;27.92;;;13.98;;
43817;SDS011;29868;47.360;18.984;2022-11-03T08:09:49;26.73;;;12.80;;
43817;SDS011;29868;47.360;18.984;2022-11-03T08:12:14;28.83;;;14.15;;
43817;SDS011;29868;47.360;18.984;2022-11-03T08:14:40;32.40;;;14.73;;
43817;SDS011;29868;47.360;18.984;2022-11-03T08:17:05;31.35;;;14.20;;
43817;SDS011;29868;47.360;18.984;2022-11-03T08:19:30;34.63;;;15.25;;
43817;SDS011;29868;47.360;18.984;2022-11-03T08:21:56;29.50;;;14.65;;
43817;SDS011;29868;47.360;18.984;2022-11-03T08:24:21;33.95;;;15.55;;
43817;SDS011;29868;47.360;18.984;2022-11-03T08:26:47;31.27;;;14.82;;
43817;SDS011;29868;47.360;18.984;2022-11-03T08:29:12;35.75;;;15.68;;
43817;SDS011;29868;47.360;18.984;2022-11-03T08:31:38;32.47;;;14.82;;
43817;SDS011;29868;47.360;18.984;2022-11-03T08:34:03;32.53;;;14.73;;
43817;SDS011;29868;47.360;18.984;2022-11-03T08:36:28;34.58;;;14.80;;
43817;SDS011;29868;47.360;18.984;2022-11-03T08:38:54;34.92;;;15.55;;
43817;SDS011;29868;47.360;18.984;2022-11-03T08:41:20;34.83;;;15.35;;
43817;SDS011;29868;47.360;18.984;2022-11-03T08:43:45;34.97;;;15.20;;
43817;SDS011;29868;47.360;18.984;2022-11-03T08:46:10;35.47;;;16.25;;
43817;SDS011;29868;47.360;18.984;2022-11-03T08:48:36;37.70;;;16.77;;
43817;SDS011;29868;47.360;18.984;2022-11-03T08:51:02;36.63;;;15.55;;
43817;SDS011;29868;47.360;18.984;2022-11-03T08:53:27;34.13;;;15.25;;
43817;SDS011;29868;47.360;18.984;2022-11-03T08:55:53;34.85;;;15.23;;
43817;SDS011;29868;47.360;18.984;2022-11-03T08:58:18;35.42;;;15.60;;
43817;SDS011;29868;47.360;18.984;2022-11-03T09:00:45;34.45;;;14.43;;
43817;SDS011;29868;47.360;18.984;2022-11-03T09:03:10;31.17;;;14.23;;
43817;SDS011;29868;47.360;18.984;2022-11-03T09:05:36;34.67;;;14.63;;
43817;SDS011;29868;47.360;18.984;2022-11-03T09:08:01;35.40;;;15.13;;
43817;SDS011;29868;47.360;18.984;2022-11-03T09:10:27;32.67;;;14.52;;
43817;SDS011;29868;47.360;18.984;2022-11-03T09:12:53;32.33;;;15.60;;
43817;SDS011;29868;47.360;18.984;2022-11-03T09:15:19;37.78;;;16.30;;
43817;SDS011;29868;47.360;18.984;2022-11-03T09:17:44;32.83;;;15.20;;
43817;SDS011;29868;47.360;18.984;2022-11-03T09:20:10;35.35;;;16.25;;
43817;SDS011;29868;47.360;18.984;2022-11-03T09:22:36;39.50;;;17.65;;
43817;SDS011;29868;47.360;18.984;2022-11-03T09:25:01;34.42;;;15.15;;
43817;SDS011;29868;47.360;18.984;2022-11-03T09:27:27;36.70;;;15.77;;
43817;SDS011;29868;47.360;18.984;2022-11-03T09:29:52;36.20;;;14.45;;
43817;SDS011;29868;47.360;18.984;2022-11-03T09:32:17;39.20;;;16.50;;
43817;SDS011;29868;47.360;18.984;2022-11-03T09:34:43;37.05;;;16.02;;
43817;SDS011;29868;47.360;18.984;2022-11-03T09:37:09;37.35;;;16.80;;
43817;SDS011;29868;47.360;18.984;2022-11-03T09:39:34;37.58;;;17.55;;
43817;SDS011;29868;47.360;18.984;2022-11-03T09:42:00;39.20;;;17.58;;
43817;SDS011;29868;47.360;18.984;2022-11-03T09:44:27;38.78;;;17.30;;
43817;SDS011;29868;47.360;18.984;2022-11-03T09:46:54;40.80;;;17.45;;
43817;SDS011;29868;47.360;18.984;2022-11-03T09:49:19;39.70;;;16.63;;
43817;SDS011;29868;47.360;18.984;2022-11-03T09:51:45;38.08;;;16.25;;
43817;SDS011;29868;47.360;18.984;2022-11-03T09:54:12;38.92;;;17.08;;
43817;SDS011;29868;47.360;18.984;2022-11-03T09:56:40;39.97;;;17.13;;
43817;SDS011;29868;47.360;18.984;2022-11-03T09:59:13;40.67;;;17.08;;
43817;SDS011;29868;47.360;18.984;2022-11-03T10:01:41;41.03;;;17.40;;
43817;SDS011;29868;47.360;18.984;2022-11-03T10:04:09;39.78;;;16.73;;
43817;SDS011;29868;47.360;18.984;2022-11-03T10:06:36;43.80;;;18.15;;
43817;SDS011;29868;47.360;18.984;2022-11-03T10:09:05;40.08;;;17.23;;
43817;SDS011;29868;47.360;18.984;2022-11-03T10:11:35;37.83;;;17.13;;
43817;SDS011;29868;47.360;18.984;2022-11-03T10:14:01;41.80;;;17.45;;
43817;SDS011;29868;47.360;18.984;2022-11-03T10:16:27;42.05;;;18.42;;
43817;SDS011;29868;47.360;18.984;2022-11-03T10:18:52;39.92;;;18.00;;
43817;SDS011;29868;47.360;18.984;2022-11-03T10:21:19;36.88;;;17.27;;
43817;SDS011;29868;47.360;18.984;2022-11-03T10:23:49;38.78;;;16.17;;
43817;SDS011;29868;47.360;18.984;2022-11-03T10:26:15;40.90;;;17.27;;
43817;SDS011;29868;47.360;18.984;2022-11-03T10:28:56;38.08;;;17.60;;
43817;SDS011;29868;47.360;18.984;2022-11-03T10:31:23;40.35;;;17.17;;
43817;SDS011;29868;47.360;18.984;2022-11-03T10:33:56;42.55;;;17.33;;
43817;SDS011;29868;47.360;18.984;2022-11-03T10:36:25;41.90;;;17.77;;
43817;SDS011;29868;47.360;18.984;2022-11-03T10:38:52;44.80;;;18.38;;
43817;SDS011;29868;47.360;18.984;2022-11-03T10:41:28;44.40;;;19.27;;
43817;SDS011;29868;47.360;18.984;2022-11-03T10:46:30;43.70;;;18.33;;
43817;SDS011;29868;47.360;18.984;2022-11-03T10:49:15;40.47;;;16.92;;
43817;SDS011;29868;47.360;18.984;2022-11-03T10:51:43;40.28;;;17.00;;
43817;SDS011;29868;47.360;18.984;2022-11-03T10:54:13;45.70;;;18.90;;
43817;SDS011;29868;47.360;18.984;2022-11-03T10:56:43;38.50;;;18.17;;
43817;SDS011;29868;47.360;18.984;2022-11-03T10:59:30;42.35;;;17.73;;
43817;SDS011;29868;47.360;18.984;2022-11-03T11:01:58;43.63;;;18.27;;
43817;SDS011;29868;47.360;18.984;2022-11-03T11:04:24;45.15;;;17.27;;
43817;SDS011;29868;47.360;18.984;2022-11-03T11:06:50;40.95;;;18.98;;
43817;SDS011;29868;47.360;18.984;2022-11-03T11:09:19;42.80;;;18.40;;
43817;SDS011;29868;47.360;18.984;2022-11-03T11:12:05;42.60;;;18.63;;
43817;SDS011;29868;47.360;18.984;2022-11-03T11:14:53;42.33;;;17.77;;
43817;SDS011;29868;47.360;18.984;2022-11-03T11:20:18;43.28;;;17.25;;
43817;SDS011;29868;47.360;18.984;2022-11-03T11:22:54;41.75;;;17.45;;
43817;SDS011;29868;47.360;18.984;2022-11-03T11:25:19;38.38;;;16.70;;
43817;SDS011;29868;47.360;18.984;2022-11-03T11:27:45;41.08;;;17.05;;
43817;SDS011;29868;47.360;18.984;2022-11-03T11:35:09;40.33;;;17.80;;
43817;SDS011;29868;47.360;18.984;2022-11-03T11:37:46;42.58;;;16.75;;
43817;SDS011;29868;47.360;18.984;2022-11-03T11:48:29;37.83;;;16.73;;
43817;SDS011;29868;47.360;18.984;2022-11-03T11:50:58;32.38;;;16.17;;
43817;SDS011;29868;47.360;18.984;2022-11-03T11:53:25;37.85;;;17.38;;
43817;SDS011;29868;47.360;18.984;2022-11-03T12:01:23;38.47;;;17.98;;
43817;SDS011;29868;47.360;18.984;2022-11-03T12:03:54;39.42;;;17.35;;
43817;SDS011;29868;47.360;18.984;2022-11-03T12:09:17;37.53;;;17.25;;
43817;SDS011;29868;47.360;18.984;2022-11-03T12:11:45;38.60;;;17.38;;
43817;SDS011;29868;47.360;18.984;2022-11-03T12:16:58;34.40;;;16.98;;
43817;SDS011;29868;47.360;18.984;2022-11-03T12:19:45;37.83;;;18.05;;
43817;SDS011;29868;47.360;18.984;2022-11-03T12:29:50;38.65;;;18.15;;
43817;SDS011;29868;47.360;18.984;2022-11-03T12:32:20;43.72;;;20.88;;
43817;SDS011;29868;47.360;18.984;2022-11-03T12:34:45;39.83;;;18.40;;
43817;SDS011;29868;47.360;18.984;2022-11-03T12:37:11;37.97;;;17.35;;
43817;SDS011;29868;47.360;18.984;2022-11-03T12:39:37;38.30;;;17.60;;
43817;SDS011;29868;47.360;18.984;2022-11-03T12:42:03;37.40;;;17.40;;
43817;SDS011;29868;47.360;18.984;2022-11-03T12:44:29;39.47;;;18.15;;
43817;SDS011;29868;47.360;18.984;2022-11-03T12:46:55;38.88;;;18.42;;
43817;SDS011;29868;47.360;18.984;2022-11-03T12:49:20;41.38;;;18.45;;
43817;SDS011;29868;47.360;18.984;2022-11-03T12:51:46;34.53;;;17.70;;
43817;SDS011;29868;47.360;18.984;2022-11-03T12:54:11;35.38;;;17.20;;
43817;SDS011;29868;47.360;18.984;2022-11-03T12:56:36;37.08;;;17.60;;
43817;SDS011;29868;47.360;18.984;2022-11-03T12:59:02;37.22;;;16.85;;
43817;SDS011;29868;47.360;18.984;2022-11-03T13:01:27;41.65;;;17.42;;
43817;SDS011;29868;47.360;18.984;2022-11-03T13:03:53;36.15;;;16.67;;
43817;SDS011;29868;47.360;18.984;2022-11-03T13:06:18;41.08;;;17.58;;
43817;SDS011;29868;47.360;18.984;2022-11-03T13:08:43;37.60;;;17.42;;
43817;SDS011;29868;47.360;18.984;2022-11-03T13:11:10;39.35;;;17.27;;
43817;SDS011;29868;47.360;18.984;2022-11-03T13:13:54;36.00;;;17.42;;
43817;SDS011;29868;47.360;18.984;2022-11-03T13:16:20;33.60;;;16.38;;
43817;SDS011;29868;47.360;18.984;2022-11-03T13:18:45;41.15;;;18.35;;
43817;SDS011;29868;47.360;18.984;2022-11-03T13:21:11;43.00;;;19.33;;
43817;SDS011;29868;47.360;18.984;2022-11-03T13:23:37;40.65;;;18.73;;
43817;SDS011;29868;47.360;18.984;2022-11-03T13:26:03;39.25;;;19.23;;
43817;SDS011;29868;47.360;18.984;2022-11-03T13:28:28;42.17;;;20.52;;
43817;SDS011;29868;47.360;18.984;2022-11-03T13:30:54;43.00;;;19.95;;
43817;SDS011;29868;47.360;18.984;2022-11-03T13:33:19;42.20;;;19.08;;
43817;SDS011;29868;47.360;18.984;2022-11-03T13:35:44;39.63;;;18.63;;
43817;SDS011;29868;47.360;18.984;2022-11-03T13:38:10;39.25;;;18.75;;
43817;SDS011;29868;47.360;18.984;2022-11-03T13:40:35;41.08;;;19.10;;
43817;SDS011;29868;47.360;18.984;2022-11-03T13:43:00;38.92;;;18.80;;
43817;SDS011;29868;47.360;18.984;2022-11-03T13:45:26;40.13;;;18.92;;
43817;SDS011;29868;47.360;18.984;2022-11-03T13:47:52;41.15;;;18.60;;
43817;SDS011;29868;47.360;18.984;2022-11-03T13:50:17;35.58;;;18.10;;
43817;SDS011;29868;47.360;18.984;2022-11-03T13:52:43;37.90;;;18.10;;
43817;SDS011;29868;47.360;18.984;2022-11-03T13:55:08;39.15;;;17.98;;
43817;SDS011;29868;47.360;18.984;2022-11-03T13:57:35;32.80;;;17.05;;
43817;SDS011;29868;47.360;18.984;2022-11-03T14:00:02;35.45;;;17.90;;
43817;SDS011;29868;47.360;18.984;2022-11-03T14:02:29;36.03;;;17.23;;
43817;SDS011;29868;47.360;18.984;2022-11-03T14:04:54;38.40;;;17.50;;
43817;SDS011;29868;47.360;18.984;2022-11-03T14:07:20;35.53;;;16.98;;
43817;SDS011;29868;47.360;18.984;2022-11-03T14:09:45;38.40;;;17.35;;
43817;SDS011;29868;47.360;18.984;2022-11-03T14:12:11;30.85;;;15.65;;
43817;SDS011;29868;47.360;18.984;2022-11-03T14:14:54;32.20;;;16.15;;
43817;SDS011;29868;47.360;18.984;2022-11-03T14:17:20;36.67;;;15.75;;
43817;SDS011;29868;47.360;18.984;2022-11-03T14:19:46;32.55;;;16.33;;
43817;SDS011;29868;47.360;18.984;2022-11-03T14:22:11;35.63;;;16.67;;
43817;SDS011;29868;47.360;18.984;2022-11-03T14:24:36;33.38;;;15.65;;
43817;SDS011;29868;47.360;18.984;2022-11-03T14:27:02;34.55;;;16.05;;
43817;SDS011;29868;47.360;18.984;2022-11-03T14:29:27;34.72;;;15.93;;
43817;SDS011;29868;47.360;18.984;2022-11-03T14:31:53;33.33;;;16.15;;
43817;SDS011;29868;47.360;18.984;2022-11-03T14:34:18;32.20;;;16.50;;
43817;SDS011;29868;47.360;18.984;2022-11-03T14:36:44;37.30;;;17.05;;
43817;SDS011;29868;47.360;18.984;2022-11-03T14:39:09;30.98;;;16.58;;
43817;SDS011;29868;47.360;18.984;2022-11-03T14:41:34;35.97;;;17.23;;
43817;SDS011;29868;47.360;18.984;2022-11-03T14:44:18;36.40;;;17.88;;
43817;SDS011;29868;47.360;18.984;2022-11-03T14:46:44;37.72;;;19.02;;
43817;SDS011;29868;47.360;18.984;2022-11-03T14:49:09;36.95;;;18.05;;
43817;SDS011;29868;47.360;18.984;2022-11-03T14:51:35;36.10;;;17.38;;
43817;SDS011;29868;47.360;18.984;2022-11-03T14:54:01;35.70;;;17.58;;
43817;SDS011;29868;47.360;18.984;2022-11-03T14:56:26;33.33;;;17.20;;
43817;SDS011;29868;47.360;18.984;2022-11-03T14:58:52;40.15;;;18.75;;
43817;SDS011;29868;47.360;18.984;2022-11-03T15:01:18;41.33;;;19.02;;
43817;SDS011;29868;47.360;18.984;2022-11-03T15:03:43;36.13;;;17.73;;
43817;SDS011;29868;47.360;18.984;2022-11-03T15:06:09;40.70;;;19.65;;
43817;SDS011;29868;47.360;18.984;2022-11-03T15:08:35;46.78;;;21.70;;
43817;SDS011;29868;47.360;18.984;2022-11-03T15:11:01;39.92;;;19.13;;
43817;SDS011;29868;47.360;18.984;2022-11-03T15:13:29;35.70;;;16.92;;
43817;SDS011;29868;47.360;18.984;2022-11-03T15:15:54;36.17;;;16.85;;
43817;SDS011;29868;47.360;18.984;2022-11-03T15:18:20;38.53;;;17.58;;
43817;SDS011;29868;47.360;18.984;2022-11-03T15:20:45;39.17;;;17.73;;
43817;SDS011;29868;47.360;18.984;2022-11-03T15:23:11;39.70;;;18.50;;
43817;SDS011;29868;47.360;18.984;2022-11-03T15:25:37;36.17;;;18.67;;
43817;SDS011;29868;47.360;18.984;2022-11-03T15:28:02;37.88;;;17.80;;
43817;SDS011;29868;47.360;18.984;2022-11-03T15:30:27;36.53;;;16.70;;
43817;SDS011;29868;47.360;18.984;2022-11-03T15:32:53;35.80;;;17.20;;
43817;SDS011;29868;47.360;18.984;2022-11-03T15:35:20;38.00;;;17.33;;
43817;SDS011;29868;47.360;18.984;2022-11-03T15:37:45;36.80;;;17.45;;
43817;SDS011;29868;47.360;18.984;2022-11-03T15:40:12;40.92;;;18.95;;